Francis, Canada
Current Conditions -  °F | °C
As of 6:00 PM on Friday 24 Oct 2014 (Local Time) from CYQR Reporting Station
Few Clouds Few Clouds  
Wind Chill: 42°   Ceiling: Unl
Heat Index: 48°   Visibility: 15mi
Dew Point: 34°   Wind: 16mph
Humidity: 57%   Direction: 270°W
Pressure: 29.91"   Gusts: NA
Location:  50.1°N, 103.87°W
Report Text: CYQR 250000Z 27014KT 15SM FEW200 09/01 A2991 RMK CI1 CI TR SLP145
Loading
Personal Weather Stations






























Interactive Weather Map
Tropical Storm Tracking
New forecast layout! Learn more

10-Day Weather Forecast

Advertisements
Track Severe Weather on mobile